Time;durP1;ratioP1;P1;durP2;ratioP2;P2;SDS_P1;SDS_P2;PMS_P1;PMS_P2;Temp;Humidity;BMP_temperature;BMP_pressure;BME280_temperature;BME280_humidity;BME280_pressure;Samples;Min_cycle;Max_cycle;Signal;HPM_P1;HPM_P2
2021/05/10 00:01:19;;;;;;;1.73;1.60;;;;;;;;;;5095619;28;20450;-59
2021/05/10 00:03:46;;;;;;;2.87;1.97;;;;;;;;;;5096698;28;20440;-59
2021/05/10 00:06:14;;;;;;;2.63;1.63;;;;;;;;;;5096802;28;20446;-59
2021/05/10 00:08:41;;;;;;;1.80;1.70;;;;;;;;;;5096243;28;20455;-59
2021/05/10 00:11:08;;;;;;;4.00;2.47;;;;;;;;;;5096417;28;20513;-59
2021/05/10 00:13:38;;;;;;;3.20;2.47;;;;;;;;;;5096405;28;20477;-59
2021/05/10 00:16:05;;;;;;;2.53;1.67;;;;;;;;;;5096527;28;20520;-58
2021/05/10 00:18:32;;;;;;;2.50;2.00;;;;;;;;;;5096447;28;20439;-58
2021/05/10 00:20:59;;;;;;;2.80;1.47;;;;;;;;;;5096454;28;20469;-58
2021/05/10 00:23:25;;;;;;;3.17;1.50;;;;;;;;;;5095946;28;20467;-58
2021/05/10 00:25:52;;;;;;;1.97;1.67;;;;;;;;;;5096030;28;20447;-59
2021/05/10 00:28:19;;;;;;;1.73;1.63;;;;;;;;;;5095900;28;20456;-59
2021/05/10 00:30:47;;;;;;;1.87;1.53;;;;;;;;;;5095934;28;20973;-59
2021/05/10 00:33:13;;;;;;;1.93;1.33;;;;;;;;;;5096279;28;20487;-59
2021/05/10 00:35:40;;;;;;;3.13;1.63;;;;;;;;;;5096697;28;20454;-59
2021/05/10 00:38:07;;;;;;;2.83;1.70;;;;;;;;;;5096230;28;20491;-59
2021/05/10 00:40:35;;;;;;;1.70;1.60;;;;;;;;;;5120148;22;20485;-61
2021/05/10 00:43:02;;;;;;;2.80;1.67;;;;;;;;;;5096585;28;20499;-61
2021/05/10 00:45:29;;;;;;;2.50;1.60;;;;;;;;;;5095509;28;20442;-61
2021/05/10 00:47:57;;;;;;;6.17;2.00;;;;;;;;;;5095571;28;20814;-60
2021/05/10 00:50:24;;;;;;;2.70;1.73;;;;;;;;;;5095635;28;20800;-60
2021/05/10 00:52:51;;;;;;;1.53;1.40;;;;;;;;;;5095259;28;20449;-61
2021/05/10 00:55:18;;;;;;;3.37;1.80;;;;;;;;;;5095118;28;20481;-60
2021/05/10 00:57:47;;;;;;;2.87;1.80;;;;;;;;;;5095427;28;20496;-61
2021/05/10 01:00:15;;;;;;;2.03;1.87;;;;;;;;;;5095394;28;20497;-61
2021/05/10 01:02:42;;;;;;;4.73;1.87;;;;;;;;;;5095077;28;21041;-61
2021/05/10 01:05:10;;;;;;;1.83;1.63;;;;;;;;;;5095016;28;20983;-61
2021/05/10 01:07:37;;;;;;;2.50;1.93;;;;;;;;;;5095004;28;20454;-61
2021/05/10 01:10:06;;;;;;;3.30;2.13;;;;;;;;;;5095183;28;20497;-61
2021/05/10 01:12:33;;;;;;;2.47;1.87;;;;;;;;;;5094863;28;20442;-61
2021/05/10 01:15:00;;;;;;;3.03;1.70;;;;;;;;;;5094860;28;20480;-61
2021/05/10 01:17:27;;;;;;;3.47;2.23;;;;;;;;;;5094747;28;20933;-60
2021/05/10 01:19:54;;;;;;;2.17;1.80;;;;;;;;;;5094689;28;20988;-61
2021/05/10 01:22:22;;;;;;;2.53;1.70;;;;;;;;;;5095026;28;20446;-60
2021/05/10 01:24:50;;;;;;;1.80;1.70;;;;;;;;;;5095004;28;20438;-61
2021/05/10 01:27:17;;;;;;;2.07;1.87;;;;;;;;;;5094953;28;20456;-60
2021/05/10 01:29:44;;;;;;;2.13;1.80;;;;;;;;;;5095075;28;20519;-60
2021/05/10 01:32:10;;;;;;;2.40;1.87;;;;;;;;;;5094556;28;20445;-60
2021/05/10 01:34:37;;;;;;;2.07;1.77;;;;;;;;;;5094818;28;20478;-60
2021/05/10 01:37:04;;;;;;;1.87;1.70;;;;;;;;;;5094532;28;20454;-60
2021/05/10 01:39:31;;;;;;;1.77;1.67;;;;;;;;;;5094537;28;20469;-60
2021/05/10 01:41:58;;;;;;;2.40;2.13;;;;;;;;;;5095021;28;20422;-60
2021/05/10 01:44:25;;;;;;;3.00;2.20;;;;;;;;;;5094679;28;20836;-60
2021/05/10 01:46:52;;;;;;;3.57;1.50;;;;;;;;;;5094235;28;20818;-59
2021/05/10 01:49:19;;;;;;;1.80;1.60;;;;;;;;;;5094179;28;20453;-60
2021/05/10 01:51:45;;;;;;;2.30;1.83;;;;;;;;;;5094285;28;20453;-60
2021/05/10 01:54:12;;;;;;;3.00;2.30;;;;;;;;;;5094171;28;20492;-61
2021/05/10 01:56:39;;;;;;;2.77;1.93;;;;;;;;;;5094929;28;20450;-61
2021/05/10 01:59:06;;;;;;;2.63;2.00;;;;;;;;;;5095041;28;20442;-61
2021/05/10 02:01:33;;;;;;;1.90;1.80;;;;;;;;;;5094403;28;20942;-61
2021/05/10 02:04:00;;;;;;;3.10;1.70;;;;;;;;;;5094566;28;20449;-61
2021/05/10 02:06:27;;;;;;;3.00;1.70;;;;;;;;;;5094548;28;20529;-61
2021/05/10 02:08:54;;;;;;;2.93;1.77;;;;;;;;;;5094372;28;20495;-61
2021/05/10 02:11:21;;;;;;;2.50;2.07;;;;;;;;;;5094355;28;20508;-61
2021/05/10 02:13:48;;;;;;;3.50;1.90;;;;;;;;;;5094321;28;20466;-61
2021/05/10 02:16:16;;;;;;;2.87;1.90;;;;;;;;;;5094468;28;20448;-61
2021/05/10 02:18:42;;;;;;;2.93;2.07;;;;;;;;;;5094440;28;20478;-61
2021/05/10 02:21:09;;;;;;;2.47;1.77;;;;;;;;;;5094112;28;20515;-61
2021/05/10 02:23:37;;;;;;;5.50;3.77;;;;;;;;;;5093320;28;20452;-60
2021/05/10 02:26:05;;;;;;;7.97;4.47;;;;;;;;;;5094212;28;20507;-60
2021/05/10 02:28:32;;;;;;;6.70;4.80;;;;;;;;;;5094722;28;20438;-60
2021/05/10 02:31:00;;;;;;;4.60;3.97;;;;;;;;;;5094062;28;20458;-61
2021/05/10 02:33:28;;;;;;;4.50;4.10;;;;;;;;;;5094095;28;20503;-61
2021/05/10 02:35:56;;;;;;;2.57;2.37;;;;;;;;;;5094386;28;20494;-61
2021/05/10 02:38:23;;;;;;;5.60;4.77;;;;;;;;;;5094075;28;20454;-60
2021/05/10 02:40:50;;;;;;;6.63;4.20;;;;;;;;;;5093333;28;20481;-61
2021/05/10 02:43:17;;;;;;;4.37;2.93;;;;;;;;;;5094220;28;20454;-61
2021/05/10 02:45:45;;;;;;;3.20;2.90;;;;;;;;;;5093684;28;20453;-61
2021/05/10 02:48:11;;;;;;;2.50;2.13;;;;;;;;;;5093437;28;20940;-62
2021/05/10 02:50:39;;;;;;;2.57;2.37;;;;;;;;;;5093554;28;20469;-60
2021/05/10 02:53:06;;;;;;;2.90;2.00;;;;;;;;;;5094187;28;20452;-61
2021/05/10 02:55:33;;;;;;;2.80;2.10;;;;;;;;;;5093369;28;20487;-62
2021/05/10 02:57:59;;;;;;;3.87;3.43;;;;;;;;;;5093589;28;20436;-62
2021/05/10 03:00:27;;;;;;;5.33;4.20;;;;;;;;;;5093395;28;20469;-60
2021/05/10 03:02:55;;;;;;;3.27;3.00;;;;;;;;;;5093410;28;20445;-60
2021/05/10 03:05:22;;;;;;;2.47;2.27;;;;;;;;;;5093043;28;20434;-61
2021/05/10 03:07:50;;;;;;;4.93;3.20;;;;;;;;;;5093341;28;20441;-61
2021/05/10 03:10:18;;;;;;;2.90;2.03;;;;;;;;;;5093316;28;20464;-61
2021/05/10 03:12:44;;;;;;;3.70;2.43;;;;;;;;;;5093484;28;20436;-61
2021/05/10 03:15:12;;;;;;;3.97;2.30;;;;;;;;;;5093502;28;20543;-61
2021/05/10 03:17:40;;;;;;;2.30;2.10;;;;;;;;;;5093331;28;20937;-61
2021/05/10 03:20:08;;;;;;;2.70;2.50;;;;;;;;;;5092991;28;20545;-60
2021/05/10 03:22:35;;;;;;;5.47;2.37;;;;;;;;;;5093223;28;20502;-61
2021/05/10 03:25:02;;;;;;;3.43;2.60;;;;;;;;;;5093216;28;20434;-60
2021/05/10 03:27:38;;;;;;;3.40;2.00;;;;;;;;;;5093039;28;20453;-61
2021/05/10 03:30:05;;;;;;;2.40;2.20;;;;;;;;;;5092896;28;20523;-60
2021/05/10 03:32:32;;;;;;;2.77;2.17;;;;;;;;;;5093017;28;20445;-60
2021/05/10 03:34:59;;;;;;;2.60;2.07;;;;;;;;;;5094507;28;20477;-61
2021/05/10 03:37:25;;;;;;;5.17;2.37;;;;;;;;;;5096961;28;20436;-61
2021/05/10 03:39:52;;;;;;;4.03;2.10;;;;;;;;;;5096585;28;20485;-61
2021/05/10 03:42:20;;;;;;;3.83;2.20;;;;;;;;;;5096778;28;20457;-61
2021/05/10 03:44:47;;;;;;;2.77;2.33;;;;;;;;;;5096741;28;20438;-61
2021/05/10 03:47:13;;;;;;;2.47;2.27;;;;;;;;;;5096415;28;20445;-60
2021/05/10 03:49:40;;;;;;;10.30;2.70;;;;;;;;;;5096633;28;20469;-61
2021/05/10 03:52:07;;;;;;;3.40;2.57;;;;;;;;;;5096661;28;20494;-60
2021/05/10 03:54:33;;;;;;;3.47;2.37;;;;;;;;;;5096570;28;20473;-60
2021/05/10 03:57:00;;;;;;;2.40;2.20;;;;;;;;;;5097589;28;20445;-60
2021/05/10 03:59:28;;;;;;;2.43;2.13;;;;;;;;;;5097853;28;20445;-59
2021/05/10 04:01:57;;;;;;;4.77;2.53;;;;;;;;;;5096856;28;20497;-60
2021/05/10 04:04:27;;;;;;;3.80;2.50;;;;;;;;;;5096441;28;20437;-60
2021/05/10 04:08:12;;;;;;;5.23;2.50;;;;;;;;;;5112238;27;20601;-61
2021/05/10 04:10:44;;;;;;;4.70;2.87;;;;;;;;;;5111278;28;20457;-61
2021/05/10 04:15:56;;;;;;;3.90;3.53;;;;;;;;;;5111705;28;20428;-61
2021/05/10 04:18:23;;;;;;;2.37;2.17;;;;;;;;;;5111290;28;20449;-61
2021/05/10 04:20:50;;;;;;;2.97;2.60;;;;;;;;;;5111132;28;20461;-61
2021/05/10 04:23:19;;;;;;;3.00;2.33;;;;;;;;;;5111353;28;20489;-61
2021/05/10 04:25:46;;;;;;;3.00;2.30;;;;;;;;;;5110714;28;20479;-61
2021/05/10 04:28:13;;;;;;;2.07;1.70;;;;;;;;;;5111081;28;20982;-61
2021/05/10 04:30:40;;;;;;;5.10;2.17;;;;;;;;;;5110772;28;20470;-62
2021/05/10 04:33:07;;;;;;;2.37;2.17;;;;;;;;;;5110842;28;20445;-61
2021/05/10 04:35:34;;;;;;;3.10;2.17;;;;;;;;;;5111040;28;20437;-62
2021/05/10 04:38:02;;;;;;;3.40;2.10;;;;;;;;;;5111037;28;20446;-62
2021/05/10 04:40:29;;;;;;;2.57;1.83;;;;;;;;;;5110600;28;20980;-61
2021/05/10 04:42:56;;;;;;;3.50;2.00;;;;;;;;;;5114215;28;20506;-62
2021/05/10 04:45:23;;;;;;;3.23;2.93;;;;;;;;;;5116218;28;20445;-61
2021/05/10 04:47:50;;;;;;;5.63;2.23;;;;;;;;;;5114000;28;20492;-61
2021/05/10 04:50:17;;;;;;;5.50;2.40;;;;;;;;;;5114066;28;20461;-61
2021/05/10 04:52:44;;;;;;;4.60;2.10;;;;;;;;;;5111444;28;20853;-62
2021/05/10 04:55:11;;;;;;;3.23;1.97;;;;;;;;;;5111305;28;20519;-61
2021/05/10 04:57:39;;;;;;;4.73;2.47;;;;;;;;;;5110615;28;20439;-61
2021/05/10 05:00:07;;;;;;;4.67;2.00;;;;;;;;;;5112940;28;20541;-61
2021/05/10 05:02:34;;;;;;;4.70;2.43;;;;;;;;;;5110649;28;20457;-61
2021/05/10 05:05:01;;;;;;;2.23;2.03;;;;;;;;;;5111168;28;20446;-62
2021/05/10 05:07:27;;;;;;;4.60;2.50;;;;;;;;;;5110831;28;20571;-61
2021/05/10 05:09:54;;;;;;;2.80;2.13;;;;;;;;;;5110706;28;20454;-61
2021/05/10 05:12:21;;;;;;;2.20;2.00;;;;;;;;;;5110223;28;20448;-61
2021/05/10 05:14:48;;;;;;;3.07;2.23;;;;;;;;;;5109992;28;20441;-62
2021/05/10 05:17:15;;;;;;;3.00;2.50;;;;;;;;;;5109206;28;20461;-62
2021/05/10 05:19:42;;;;;;;4.97;2.80;;;;;;;;;;5096137;28;20461;-61
2021/05/10 05:22:09;;;;;;;5.47;2.70;;;;;;;;;;5096466;28;20491;-62
2021/05/10 05:24:35;;;;;;;3.47;2.60;;;;;;;;;;5096574;28;20441;-61
2021/05/10 05:27:02;;;;;;;4.20;3.00;;;;;;;;;;5096321;28;20478;-62
2021/05/10 05:29:29;;;;;;;3.23;2.17;;;;;;;;;;5097081;28;20453;-62
2021/05/10 05:31:58;;;;;;;3.10;2.50;;;;;;;;;;5096898;28;20442;-62
2021/05/10 05:34:25;;;;;;;3.03;2.00;;;;;;;;;;5097160;28;20820;-61
2021/05/10 05:36:52;;;;;;;4.10;2.57;;;;;;;;;;5097468;28;20453;-61
2021/05/10 05:39:19;;;;;;;5.77;3.50;;;;;;;;;;5098191;28;20472;-61
2021/05/10 05:41:46;;;;;;;5.00;2.73;;;;;;;;;;5097149;28;20461;-61
2021/05/10 05:44:13;;;;;;;4.47;2.90;;;;;;;;;;5095739;28;20447;-61
2021/05/10 05:46:42;;;;;;;7.90;3.10;;;;;;;;;;5097249;28;20484;-62
2021/05/10 05:49:10;;;;;;;4.40;2.80;;;;;;;;;;5096368;28;20453;-61
2021/05/10 05:51:37;;;;;;;3.03;2.53;;;;;;;;;;5096110;28;20823;-61
2021/05/10 05:54:04;;;;;;;3.47;2.90;;;;;;;;;;5096131;28;20478;-62
2021/05/10 05:56:32;;;;;;;6.63;2.67;;;;;;;;;;5095532;28;20787;-62
2021/05/10 05:58:59;;;;;;;4.97;2.90;;;;;;;;;;5095483;28;20451;-62
2021/05/10 06:01:25;;;;;;;5.57;3.00;;;;;;;;;;5095775;28;20464;-63
2021/05/10 06:03:53;;;;;;;5.63;2.50;;;;;;;;;;5095858;28;20442;-63
2021/05/10 06:06:21;;;;;;;7.53;3.27;;;;;;;;;;5095463;28;21022;-62
2021/05/10 06:08:48;;;;;;;3.33;3.03;;;;;;;;;;5095508;28;20459;-62
2021/05/10 06:11:14;;;;;;;4.10;2.73;;;;;;;;;;5095491;28;20470;-63
2021/05/10 06:13:41;;;;;;;3.20;2.70;;;;;;;;;;5095712;28;20448;-63
2021/05/10 06:16:09;;;;;;;3.23;2.50;;;;;;;;;;5095523;28;20441;-63
2021/05/10 06:18:36;;;;;;;4.00;2.90;;;;;;;;;;5095385;28;20453;-62
2021/05/10 06:21:03;;;;;;;4.80;3.20;;;;;;;;;;5095529;28;20457;-63
2021/05/10 06:23:32;;;;;;;3.50;2.50;;;;;;;;;;5095330;28;20473;-63
2021/05/10 06:25:59;;;;;;;3.90;2.60;;;;;;;;;;5095369;28;20569;-62
2021/05/10 06:28:26;;;;;;;3.07;2.63;;;;;;;;;;5095752;28;20453;-63
2021/05/10 06:30:53;;;;;;;3.90;2.33;;;;;;;;;;5093698;28;20511;-62
2021/05/10 06:33:19;;;;;;;5.17;2.57;;;;;;;;;;5094941;28;20442;-62
2021/05/10 06:35:46;;;;;;;7.37;2.43;;;;;;;;;;5094725;28;20446;-63
2021/05/10 06:38:13;;;;;;;3.57;2.40;;;;;;;;;;5094632;28;20846;-63
2021/05/10 06:40:41;;;;;;;5.43;2.90;;;;;;;;;;5112070;22;20504;-60
2021/05/10 06:43:08;;;;;;;3.87;2.30;;;;;;;;;;5034231;28;20443;-60
2021/05/10 06:45:35;;;;;;;4.73;2.73;;;;;;;;;;5034002;28;21007;-61
2021/05/10 06:48:02;;;;;;;3.57;2.70;;;;;;;;;;5034322;28;20495;-61
2021/05/10 06:50:28;;;;;;;5.60;2.53;;;;;;;;;;5033844;28;20509;-60
2021/05/10 06:52:55;;;;;;;4.07;2.50;;;;;;;;;;5034087;28;20970;-60
2021/05/10 06:55:22;;;;;;;2.63;2.40;;;;;;;;;;5034059;28;20450;-61
2021/05/10 06:57:50;;;;;;;5.10;2.50;;;;;;;;;;5033923;28;20472;-61
2021/05/10 07:00:17;;;;;;;4.30;2.83;;;;;;;;;;5034087;28;20500;-61
2021/05/10 07:02:44;;;;;;;5.93;2.67;;;;;;;;;;5034118;28;20505;-60
2021/05/10 07:05:11;;;;;;;4.27;2.83;;;;;;;;;;5034159;28;20785;-61
2021/05/10 07:07:38;;;;;;;5.87;2.93;;;;;;;;;;5033794;28;20484;-61
2021/05/10 07:10:05;;;;;;;3.90;2.37;;;;;;;;;;5033675;28;20463;-60
2021/05/10 07:12:32;;;;;;;5.33;2.83;;;;;;;;;;5034170;28;20460;-61
2021/05/10 07:14:59;;;;;;;4.23;2.33;;;;;;;;;;5033630;28;20449;-60
2021/05/10 07:17:26;;;;;;;3.70;2.30;;;;;;;;;;5033870;28;20563;-60
2021/05/10 07:19:53;;;;;;;5.47;2.50;;;;;;;;;;5033430;28;20452;-62
2021/05/10 07:22:20;;;;;;;4.10;2.83;;;;;;;;;;5033803;28;20816;-60
2021/05/10 07:24:47;;;;;;;4.30;2.50;;;;;;;;;;5033852;28;20495;-62
2021/05/10 07:27:14;;;;;;;3.60;2.40;;;;;;;;;;5033532;28;20472;-61
2021/05/10 07:29:40;;;;;;;5.60;2.27;;;;;;;;;;5033536;28;20503;-60
2021/05/10 07:32:08;;;;;;;8.93;2.67;;;;;;;;;;5033773;28;20465;-61
2021/05/10 07:34:35;;;;;;;4.23;2.10;;;;;;;;;;5033554;28;20449;-59
2021/05/10 07:37:02;;;;;;;5.80;2.63;;;;;;;;;;5033825;28;20444;-59
2021/05/10 07:39:29;;;;;;;2.50;1.93;;;;;;;;;;5033918;28;20445;-59
2021/05/10 07:41:55;;;;;;;2.87;2.57;;;;;;;;;;5033247;28;20484;-60
2021/05/10 07:44:22;;;;;;;4.07;2.67;;;;;;;;;;5033921;28;20502;-60
2021/05/10 07:46:49;;;;;;;5.53;1.90;;;;;;;;;;5033676;28;20480;-60
2021/05/10 07:49:17;;;;;;;3.87;2.77;;;;;;;;;;5033744;28;20449;-60
2021/05/10 07:51:43;;;;;;;3.90;2.37;;;;;;;;;;5033717;28;20499;-60
2021/05/10 07:54:10;;;;;;;2.73;1.97;;;;;;;;;;5033966;28;20444;-59
2021/05/10 07:56:37;;;;;;;2.60;2.40;;;;;;;;;;5033926;28;20447;-60
2021/05/10 07:59:09;;;;;;;2.53;1.93;;;;;;;;;;5033096;28;21051;-60
2021/05/10 08:01:36;;;;;;;3.00;2.30;;;;;;;;;;5033200;28;21018;-60
2021/05/10 08:04:03;;;;;;;4.00;2.00;;;;;;;;;;5033731;28;20488;-61
2021/05/10 08:06:30;;;;;;;6.17;3.07;;;;;;;;;;5033535;28;21018;-59
2021/05/10 08:08:57;;;;;;;3.40;2.47;;;;;;;;;;5033561;28;20453;-61
2021/05/10 08:11:25;;;;;;;2.70;1.90;;;;;;;;;;5033222;28;20468;-60
2021/05/10 08:13:52;;;;;;;3.40;2.23;;;;;;;;;;5033486;28;20453;-59
2021/05/10 08:16:18;;;;;;;4.20;2.00;;;;;;;;;;5033598;28;20457;-59
2021/05/10 08:18:45;;;;;;;3.00;2.50;;;;;;;;;;5033213;28;20437;-61
2021/05/10 08:21:12;;;;;;;2.43;2.23;;;;;;;;;;5033717;28;20463;-59
2021/05/10 08:23:40;;;;;;;2.20;2.00;;;;;;;;;;5033038;28;20893;-59
2021/05/10 08:26:07;;;;;;;5.23;2.37;;;;;;;;;;5033005;28;20451;-60
2021/05/10 08:28:34;;;;;;;5.00;2.10;;;;;;;;;;5032795;28;20441;-60
2021/05/10 08:31:00;;;;;;;2.53;2.30;;;;;;;;;;5033325;28;20465;-60
2021/05/10 08:33:29;;;;;;;5.60;2.07;;;;;;;;;;5032614;28;20447;-60
2021/05/10 08:35:56;;;;;;;2.03;1.87;;;;;;;;;;5032752;28;20452;-60
2021/05/10 08:38:23;;;;;;;4.97;2.33;;;;;;;;;;5033673;28;20449;-59
2021/05/10 08:40:52;;;;;;;4.00;2.20;;;;;;;;;;5032507;28;20487;-59
2021/05/10 08:43:20;;;;;;;2.87;2.33;;;;;;;;;;5032573;28;20465;-59
2021/05/10 08:45:48;;;;;;;4.23;2.47;;;;;;;;;;5032672;28;20449;-59
2021/05/10 08:48:14;;;;;;;3.13;2.67;;;;;;;;;;5032189;28;20592;-59
2021/05/10 08:50:41;;;;;;;2.50;2.30;;;;;;;;;;5032438;28;20479;-59
2021/05/10 08:53:08;;;;;;;2.90;2.10;;;;;;;;;;5032785;28;20948;-60
2021/05/10 08:55:35;;;;;;;3.97;1.97;;;;;;;;;;5036347;28;20796;-60
2021/05/10 08:58:04;;;;;;;2.50;2.00;;;;;;;;;;5036636;28;20451;-60
2021/05/10 09:00:31;;;;;;;5.43;2.13;;;;;;;;;;5036506;28;20475;-61
2021/05/10 09:03:09;;;;;;;3.40;2.00;;;;;;;;;;5036632;28;20450;-59
2021/05/10 09:05:46;;;;;;;4.33;2.17;;;;;;;;;;5036459;28;20444;-60
2021/05/10 09:08:13;;;;;;;3.10;2.23;;;;;;;;;;5036282;28;20466;-61
2021/05/10 09:10:40;;;;;;;3.23;2.20;;;;;;;;;;5036623;28;20550;-62
2021/05/10 09:13:08;;;;;;;2.10;1.80;;;;;;;;;;5036191;28;20885;-60
2021/05/10 09:15:36;;;;;;;5.30;2.03;;;;;;;;;;5036624;28;20763;-62
2021/05/10 09:18:04;;;;;;;4.13;2.00;;;;;;;;;;5035998;28;20452;-61
2021/05/10 09:20:31;;;;;;;3.20;2.33;;;;;;;;;;5035922;28;20503;-61
2021/05/10 09:22:59;;;;;;;5.20;2.43;;;;;;;;;;5035878;28;20523;-61
2021/05/10 09:25:31;;;;;;;2.90;2.10;;;;;;;;;;5035582;28;20464;-62
2021/05/10 09:28:10;;;;;;;4.20;2.50;;;;;;;;;;5035388;28;20486;-62
2021/05/10 09:30:37;;;;;;;2.80;2.20;;;;;;;;;;5035850;28;20496;-61
2021/05/10 09:33:04;;;;;;;3.40;2.70;;;;;;;;;;5035474;28;20850;-62
2021/05/10 09:35:31;;;;;;;3.63;2.90;;;;;;;;;;5035544;28;20448;-60
2021/05/10 09:38:00;;;;;;;2.90;1.97;;;;;;;;;;5035246;28;20445;-63
2021/05/10 09:40:28;;;;;;;3.90;2.03;;;;;;;;;;5035341;28;20495;-62
2021/05/10 09:42:56;;;;;;;4.30;2.20;;;;;;;;;;5035570;28;20911;-63
2021/05/10 09:45:31;;;;;;;5.43;2.33;;;;;;;;;;5035609;28;20821;-61
2021/05/10 09:48:09;;;;;;;5.13;2.20;;;;;;;;;;5035045;28;20476;-61
2021/05/10 09:50:36;;;;;;;3.53;2.30;;;;;;;;;;5035412;28;20469;-61
2021/05/10 09:53:03;;;;;;;3.40;2.50;;;;;;;;;;5035120;28;20436;-61
2021/05/10 09:55:41;;;;;;;2.03;1.83;;;;;;;;;;5035287;28;20810;-61
2021/05/10 09:58:08;;;;;;;2.50;1.93;;;;;;;;;;5035272;28;20794;-61
2021/05/10 10:00:36;;;;;;;3.87;2.23;;;;;;;;;;5035112;28;20461;-61
2021/05/10 10:03:05;;;;;;;4.43;2.00;;;;;;;;;;5035287;28;20453;-61
2021/05/10 10:05:32;;;;;;;2.73;2.30;;;;;;;;;;5034955;28;20459;-61
2021/05/10 10:07:59;;;;;;;3.80;2.30;;;;;;;;;;5034696;28;20999;-61
2021/05/10 10:10:26;;;;;;;3.20;2.00;;;;;;;;;;5035026;28;20817;-59
2021/05/10 10:12:52;;;;;;;2.10;1.80;;;;;;;;;;5034954;28;20465;-61
2021/05/10 10:15:19;;;;;;;20.07;18.07;;;;;;;;;;5034804;28;20449;-59
2021/05/10 10:17:47;;;;;;;6.40;5.80;;;;;;;;;;5034566;28;20932;-62
2021/05/10 10:20:14;;;;;;;2.20;2.00;;;;;;;;;;5034446;28;20937;-61
2021/05/10 10:22:42;;;;;;;3.27;2.10;;;;;;;;;;5034749;28;20456;-61
2021/05/10 10:25:09;;;;;;;3.30;1.87;;;;;;;;;;5034906;28;20449;-62
2021/05/10 10:27:37;;;;;;;2.33;1.90;;;;;;;;;;5034258;28;20484;-61
2021/05/10 10:30:04;;;;;;;3.23;1.90;;;;;;;;;;5034476;28;20960;-61
2021/05/10 10:32:32;;;;;;;1.93;1.83;;;;;;;;;;5034440;28;20457;-62
2021/05/10 10:35:00;;;;;;;2.00;1.80;;;;;;;;;;5034089;28;20958;-61
2021/05/10 10:37:28;;;;;;;1.97;1.70;;;;;;;;;;5034367;28;20448;-59
2021/05/10 10:39:56;;;;;;;2.27;2.00;;;;;;;;;;5033952;28;20456;-59
2021/05/10 10:42:24;;;;;;;2.50;2.00;;;;;;;;;;5035066;28;20453;-59
2021/05/10 10:44:55;;;;;;;3.27;2.40;;;;;;;;;;5034105;28;20448;-58
2021/05/10 10:47:43;;;;;;;4.17;2.87;;;;;;;;;;5034082;28;20476;-61
2021/05/10 10:50:11;;;;;;;4.37;2.60;;;;;;;;;;5033820;28;20433;-58
2021/05/10 10:52:48;;;;;;;3.53;2.53;;;;;;;;;;5034127;28;20457;-59
2021/05/10 10:55:17;;;;;;;3.33;2.27;;;;;;;;;;5033805;28;20449;-56
2021/05/10 10:57:44;;;;;;;3.03;2.40;;;;;;;;;;5033877;28;20449;-57
2021/05/10 11:00:14;;;;;;;4.43;2.30;;;;;;;;;;5033789;28;20772;-58
2021/05/10 11:02:42;;;;;;;4.97;1.90;;;;;;;;;;5034285;28;20441;-59
2021/05/10 11:05:09;;;;;;;2.30;1.93;;;;;;;;;;5033819;28;20476;-60
2021/05/10 11:07:54;;;;;;;3.10;2.00;;;;;;;;;;5033836;28;20473;-58
2021/05/10 11:10:39;;;;;;;3.20;2.43;;;;;;;;;;5034482;28;20530;-59
2021/05/10 11:13:07;;;;;;;3.73;2.70;;;;;;;;;;5034071;28;20444;-58
2021/05/10 11:15:47;;;;;;;3.63;2.10;;;;;;;;;;5033007;28;20488;-58
2021/05/10 11:18:28;;;;;;;3.37;2.10;;;;;;;;;;5033784;28;20444;-58
2021/05/10 11:20:55;;;;;;;2.17;1.80;;;;;;;;;;5033210;28;20531;-60
2021/05/10 11:23:36;;;;;;;5.23;1.90;;;;;;;;;;5034212;28;20514;-59
2021/05/10 11:26:04;;;;;;;3.40;2.00;;;;;;;;;;5034144;28;20421;-60
2021/05/10 11:28:46;;;;;;;2.70;1.80;;;;;;;;;;5033628;28;20481;-59
2021/05/10 11:31:17;;;;;;;5.37;1.97;;;;;;;;;;5033434;28;20464;-59
2021/05/10 11:34:03;;;;;;;3.67;1.70;;;;;;;;;;5033523;28;20448;-59
2021/05/10 11:36:30;;;;;;;2.47;1.90;;;;;;;;;;5033696;28;20531;-60
2021/05/10 11:38:59;;;;;;;5.07;2.37;;;;;;;;;;5033340;28;20444;-58
2021/05/10 11:41:29;;;;;;;2.43;2.00;;;;;;;;;;5032847;28;20473;-57
2021/05/10 11:43:57;;;;;;;2.97;1.73;;;;;;;;;;5033724;28;20440;-56
2021/05/10 11:46:37;;;;;;;2.67;1.43;;;;;;;;;;5033321;28;20459;-58
2021/05/10 11:49:05;;;;;;;4.00;2.00;;;;;;;;;;5034219;28;20422;-58
2021/05/10 11:51:35;;;;;;;2.13;1.57;;;;;;;;;;5033054;28;20468;-57
2021/05/10 11:54:04;;;;;;;2.00;1.80;;;;;;;;;;5033277;28;20936;-56
2021/05/10 11:56:32;;;;;;;4.90;1.77;;;;;;;;;;5033145;28;20479;-56
2021/05/10 11:59:07;;;;;;;3.60;2.10;;;;;;;;;;5033331;28;20761;-57
2021/05/10 12:01:37;;;;;;;3.60;1.77;;;;;;;;;;5033116;28;20468;-58
2021/05/10 12:04:17;;;;;;;2.60;1.60;;;;;;;;;;5032894;28;20453;-57
2021/05/10 12:06:44;;;;;;;1.90;1.70;;;;;;;;;;5033339;28;20499;-57
2021/05/10 12:09:26;;;;;;;4.80;2.00;;;;;;;;;;5033155;28;20449;-57
2021/05/10 12:11:54;;;;;;;3.33;1.93;;;;;;;;;;5032950;28;20480;-57
2021/05/10 12:14:22;;;;;;;2.73;2.10;;;;;;;;;;5033420;28;20936;-57
2021/05/10 12:17:01;;;;;;;3.65;1.70;;;;;;;;;;5032288;28;20440;-58
2021/05/10 12:19:48;;;;;;;3.90;1.50;;;;;;;;;;5033512;28;20578;-59
2021/05/10 12:22:15;;;;;;;3.33;1.90;;;;;;;;;;5034213;28;20465;-61
2021/05/10 12:24:54;;;;;;;2.87;1.67;;;;;;;;;;5033119;28;20456;-59
2021/05/10 12:27:23;;;;;;;3.13;1.33;;;;;;;;;;5033058;28;20465;-59
2021/05/10 12:29:50;;;;;;;3.30;2.00;;;;;;;;;;5036825;28;20445;-59
2021/05/10 12:32:17;;;;;;;4.07;1.77;;;;;;;;;;5036992;28;20468;-59
2021/05/10 12:34:44;;;;;;;2.63;1.40;;;;;;;;;;5036827;28;20450;-59
2021/05/10 12:37:11;;;;;;;2.73;1.60;;;;;;;;;;5037019;28;20817;-58
2021/05/10 12:39:38;;;;;;;2.37;1.67;;;;;;;;;;5036562;28;20964;-60
2021/05/10 12:42:15;;;;;;;4.57;1.87;;;;;;;;;;5036432;28;20579;-59
2021/05/10 12:44:43;;;;;;;3.93;1.77;;;;;;;;;;5036623;28;20448;-60
2021/05/10 12:47:10;;;;;;;2.80;1.80;;;;;;;;;;5036650;28;20499;-60
2021/05/10 12:49:44;;;;;;;3.67;1.90;;;;;;;;;;5036777;28;20448;-59
2021/05/10 12:52:11;;;;;;;3.97;1.80;;;;;;;;;;5036062;28;20530;-59
2021/05/10 12:54:44;;;;;;;5.83;1.70;;;;;;;;;;5036183;28;20962;-57
2021/05/10 12:57:11;;;;;;;2.93;1.70;;;;;;;;;;5036593;28;20505;-59
2021/05/10 12:59:51;;;;;;;4.00;1.87;;;;;;;;;;5036114;28;20461;-61
2021/05/10 13:02:18;;;;;;;4.53;2.00;;;;;;;;;;5036554;28;20886;-60
2021/05/10 13:04:45;;;;;;;3.90;1.90;;;;;;;;;;5036135;28;20440;-60
2021/05/10 13:07:12;;;;;;;3.70;1.80;;;;;;;;;;5036390;28;20484;-60
2021/05/10 13:09:39;;;;;;;5.00;1.70;;;;;;;;;;5036230;28;20542;-60
2021/05/10 13:12:11;;;;;;;3.53;1.63;;;;;;;;;;5036025;28;20464;-59
2021/05/10 13:14:39;;;;;;;6.50;1.60;;;;;;;;;;5036147;28;20467;-59
2021/05/10 13:17:13;;;;;;;3.00;1.43;;;;;;;;;;5069682;22;20963;-60
2021/05/10 13:20:01;;;;;;;4.80;1.80;;;;;;;;;;5036624;28;20520;-59
2021/05/10 13:22:57;;;;;;;5.57;1.80;;;;;;;;;;5036301;28;20433;-59
2021/05/10 13:31:17;;;;;;;2.40;1.63;;;;;;;;;;5036745;28;20413;-59
2021/05/10 13:33:58;;;;;;;4.47;1.57;;;;;;;;;;5036095;28;20524;-59
2021/05/10 13:36:25;;;;;;;3.70;1.87;;;;;;;;;;5035587;28;20501;-61
2021/05/10 13:38:52;;;;;;;1.83;1.30;;;;;;;;;;5035251;28;20441;-61
2021/05/10 13:41:21;;;;;;;3.80;1.40;;;;;;;;;;5036226;28;20745;-59
2021/05/10 13:43:57;;;;;;;2.73;1.57;;;;;;;;;;5036522;28;20441;-59
2021/05/10 13:46:24;;;;;;;4.03;1.93;;;;;;;;;;5037489;28;20482;-60
2021/05/10 13:48:52;;;;;;;3.80;1.53;;;;;;;;;;5038450;28;20579;-59
2021/05/10 13:51:19;;;;;;;4.90;1.90;;;;;;;;;;5037062;28;20455;-60
2021/05/10 13:53:45;;;;;;;2.30;1.77;;;;;;;;;;5037381;28;20457;-61
2021/05/10 13:56:13;;;;;;;2.23;1.40;;;;;;;;;;5036747;28;20799;-61
2021/05/10 13:58:44;;;;;;;3.73;1.90;;;;;;;;;;5036006;28;20464;-58
2021/05/10 14:01:11;;;;;;;4.00;1.73;;;;;;;;;;5035573;28;20429;-58
2021/05/10 14:03:38;;;;;;;3.77;1.93;;;;;;;;;;5035300;28;20445;-59
2021/05/10 14:06:06;;;;;;;4.53;1.87;;;;;;;;;;5035225;28;20456;-58
2021/05/10 14:08:35;;;;;;;2.20;1.63;;;;;;;;;;5034891;28;20488;-60
2021/05/10 14:11:01;;;;;;;3.93;1.90;;;;;;;;;;5034665;28;20453;-59
2021/05/10 14:13:28;;;;;;;3.80;2.20;;;;;;;;;;5034765;28;20855;-59
2021/05/10 14:15:55;;;;;;;4.00;1.63;;;;;;;;;;5035192;28;20793;-60
2021/05/10 14:18:25;;;;;;;2.03;1.60;;;;;;;;;;5034468;28;21038;-58
2021/05/10 14:23:38;;;;;;;1.60;1.50;;;;;;;;;;5035110;28;20405;-60
2021/05/10 14:26:05;;;;;;;2.87;1.30;;;;;;;;;;5034932;28;20940;-58
2021/05/10 14:28:33;;;;;;;2.90;1.47;;;;;;;;;;5034748;28;20477;-59
2021/05/10 14:31:01;;;;;;;2.30;1.00;;;;;;;;;;5034701;28;20506;-58
2021/05/10 14:33:28;;;;;;;2.43;1.60;;;;;;;;;;5034694;28;20460;-58
2021/05/10 14:35:55;;;;;;;3.40;1.50;;;;;;;;;;5034918;28;20508;-60
2021/05/10 14:38:22;;;;;;;3.53;1.30;;;;;;;;;;5036386;28;20548;-59
2021/05/10 14:40:50;;;;;;;2.50;1.50;;;;;;;;;;5034836;28;20449;-59
2021/05/10 14:43:17;;;;;;;6.50;1.30;;;;;;;;;;5034586;28;20529;-59
2021/05/10 14:45:45;;;;;;;2.43;1.40;;;;;;;;;;5033944;28;20451;-60
2021/05/10 14:48:11;;;;;;;3.37;1.20;;;;;;;;;;5033890;28;20477;-59
2021/05/10 14:50:38;;;;;;;2.03;1.20;;;;;;;;;;5033292;28;20452;-60
2021/05/10 14:53:05;;;;;;;1.50;0.90;;;;;;;;;;5034045;28;20963;-59
2021/05/10 14:55:32;;;;;;;1.47;1.03;;;;;;;;;;5033972;28;20453;-60
2021/05/10 14:58:00;;;;;;;2.60;1.60;;;;;;;;;;5034111;28;20461;-59
2021/05/10 15:00:27;;;;;;;1.70;1.20;;;;;;;;;;5034048;28;20448;-58
2021/05/10 15:02:54;;;;;;;1.83;1.20;;;;;;;;;;5034044;28;20445;-60